sensor_id;sensor_type;location;lat;lon;timestamp;P1;durP1;ratioP1;P2;durP2;ratioP2
70899;SDS011;67902;52.154;5.430;2024-03-02T00:00:27;2.45;;;0.70;;
70899;SDS011;67902;52.154;5.430;2024-03-02T00:02:53;3.08;;;1.05;;
70899;SDS011;67902;52.154;5.430;2024-03-02T00:05:20;5.72;;;1.23;;
70899;SDS011;67902;52.154;5.430;2024-03-02T00:07:54;3.65;;;1.10;;
70899;SDS011;67902;52.154;5.430;2024-03-02T00:10:25;3.38;;;1.05;;
70899;SDS011;67902;52.154;5.430;2024-03-02T00:12:56;3.95;;;1.10;;
70899;SDS011;67902;52.154;5.430;2024-03-02T00:15:31;4.75;;;1.02;;
70899;SDS011;67902;52.154;5.430;2024-03-02T00:18:04;5.07;;;1.17;;
70899;SDS011;67902;52.154;5.430;2024-03-02T00:20:31;2.97;;;0.73;;
70899;SDS011;67902;52.154;5.430;2024-03-02T00:23:05;2.67;;;0.80;;
70899;SDS011;67902;52.154;5.430;2024-03-02T00:25:39;4.95;;;1.20;;
70899;SDS011;67902;52.154;5.430;2024-03-02T00:28:19;5.10;;;1.17;;
70899;SDS011;67902;52.154;5.430;2024-03-02T00:33:23;6.30;;;1.17;;
70899;SDS011;67902;52.154;5.430;2024-03-02T00:35:54;3.78;;;1.23;;
70899;SDS011;67902;52.154;5.430;2024-03-02T00:38:21;3.97;;;1.10;;
70899;SDS011;67902;52.154;5.430;2024-03-02T00:40:48;4.10;;;1.52;;
70899;SDS011;67902;52.154;5.430;2024-03-02T00:46:13;3.42;;;1.17;;
70899;SDS011;67902;52.154;5.430;2024-03-02T00:48:47;3.42;;;1.30;;
70899;SDS011;67902;52.154;5.430;2024-03-02T00:51:17;5.13;;;1.17;;
70899;SDS011;67902;52.154;5.430;2024-03-02T00:53:44;1.90;;;0.63;;
70899;SDS011;67902;52.154;5.430;2024-03-02T00:56:11;3.00;;;0.85;;
70899;SDS011;67902;52.154;5.430;2024-03-02T00:58:39;2.78;;;0.80;;
70899;SDS011;67902;52.154;5.430;2024-03-02T01:01:06;1.40;;;0.50;;
70899;SDS011;67902;52.154;5.430;2024-03-02T01:03:34;1.73;;;0.47;;
70899;SDS011;67902;52.154;5.430;2024-03-02T01:06:00;1.73;;;0.63;;
70899;SDS011;67902;52.154;5.430;2024-03-02T01:08:27;0.75;;;0.28;;
70899;SDS011;67902;52.154;5.430;2024-03-02T01:10:53;2.30;;;0.60;;
70899;SDS011;67902;52.154;5.430;2024-03-02T01:13:24;1.85;;;0.55;;
70899;SDS011;67902;52.154;5.430;2024-03-02T01:15:50;1.55;;;0.50;;
70899;SDS011;67902;52.154;5.430;2024-03-02T01:18:17;1.45;;;0.50;;
70899;SDS011;67902;52.154;5.430;2024-03-02T01:20:43;1.83;;;0.60;;
70899;SDS011;67902;52.154;5.430;2024-03-02T01:23:10;2.83;;;0.50;;
70899;SDS011;67902;52.154;5.430;2024-03-02T01:25:37;1.45;;;0.52;;
70899;SDS011;67902;52.154;5.430;2024-03-02T01:28:03;1.30;;;0.35;;
70899;SDS011;67902;52.154;5.430;2024-03-02T01:30:30;1.58;;;0.50;;
70899;SDS011;67902;52.154;5.430;2024-03-02T01:32:57;1.33;;;0.40;;
70899;SDS011;67902;52.154;5.430;2024-03-02T01:35:25;0.90;;;0.40;;
70899;SDS011;67902;52.154;5.430;2024-03-02T01:37:52;2.35;;;0.43;;
70899;SDS011;67902;52.154;5.430;2024-03-02T01:40:19;1.80;;;0.50;;
70899;SDS011;67902;52.154;5.430;2024-03-02T01:42:46;0.90;;;0.30;;
70899;SDS011;67902;52.154;5.430;2024-03-02T01:45:13;0.15;;;0.10;;
70899;SDS011;67902;52.154;5.430;2024-03-02T01:47:40;2.10;;;0.75;;
70899;SDS011;67902;52.154;5.430;2024-03-02T01:50:06;1.50;;;0.40;;
70899;SDS011;67902;52.154;5.430;2024-03-02T01:52:33;1.60;;;0.50;;
70899;SDS011;67902;52.154;5.430;2024-03-02T01:55:00;0.77;;;0.38;;
70899;SDS011;67902;52.154;5.430;2024-03-02T01:57:26;1.42;;;0.52;;
70899;SDS011;67902;52.154;5.430;2024-03-02T01:59:53;1.67;;;0.70;;
70899;SDS011;67902;52.154;5.430;2024-03-02T02:02:20;1.58;;;0.40;;
70899;SDS011;67902;52.154;5.430;2024-03-02T02:04:46;0.80;;;0.50;;
70899;SDS011;67902;52.154;5.430;2024-03-02T02:07:13;1.92;;;0.60;;
70899;SDS011;67902;52.154;5.430;2024-03-02T02:09:41;1.25;;;0.40;;
70899;SDS011;67902;52.154;5.430;2024-03-02T02:12:09;1.67;;;0.50;;
70899;SDS011;67902;52.154;5.430;2024-03-02T02:17:03;1.17;;;0.40;;
70899;SDS011;67902;52.154;5.430;2024-03-02T02:19:29;1.05;;;0.38;;
70899;SDS011;67902;52.154;5.430;2024-03-02T02:21:56;0.50;;;0.25;;
70899;SDS011;67902;52.154;5.430;2024-03-02T02:24:22;3.05;;;0.60;;
70899;SDS011;67902;52.154;5.430;2024-03-02T02:26:49;1.85;;;0.43;;
70899;SDS011;67902;52.154;5.430;2024-03-02T02:29:15;1.55;;;0.50;;
70899;SDS011;67902;52.154;5.430;2024-03-02T02:31:42;1.98;;;0.68;;
70899;SDS011;67902;52.154;5.430;2024-03-02T02:34:09;3.47;;;0.60;;
70899;SDS011;67902;52.154;5.430;2024-03-02T02:36:37;0.65;;;0.30;;
70899;SDS011;67902;52.154;5.430;2024-03-02T02:39:05;1.60;;;0.60;;
70899;SDS011;67902;52.154;5.430;2024-03-02T02:41:36;1.27;;;0.60;;
70899;SDS011;67902;52.154;5.430;2024-03-02T02:44:03;2.45;;;0.70;;
70899;SDS011;67902;52.154;5.430;2024-03-02T02:46:30;1.45;;;0.50;;
70899;SDS011;67902;52.154;5.430;2024-03-02T02:48:57;1.45;;;0.50;;
70899;SDS011;67902;52.154;5.430;2024-03-02T02:51:23;1.33;;;0.45;;
70899;SDS011;67902;52.154;5.430;2024-03-02T02:56:18;1.90;;;0.60;;
70899;SDS011;67902;52.154;5.430;2024-03-02T02:58:44;1.40;;;0.52;;
70899;SDS011;67902;52.154;5.430;2024-03-02T03:01:11;2.05;;;0.80;;
70899;SDS011;67902;52.154;5.430;2024-03-02T03:03:37;1.30;;;0.30;;
70899;SDS011;67902;52.154;5.430;2024-03-02T03:06:04;1.95;;;0.50;;
70899;SDS011;67902;52.154;5.430;2024-03-02T03:08:30;0.88;;;0.25;;
70899;SDS011;67902;52.154;5.430;2024-03-02T03:10:57;1.13;;;0.50;;
70899;SDS011;67902;52.154;5.430;2024-03-02T03:13:23;0.85;;;0.40;;
70899;SDS011;67902;52.154;5.430;2024-03-02T03:15:50;0.73;;;0.30;;
70899;SDS011;67902;52.154;5.430;2024-03-02T03:18:16;1.25;;;0.55;;
70899;SDS011;67902;52.154;5.430;2024-03-02T03:20:43;3.20;;;1.08;;
70899;SDS011;67902;52.154;5.430;2024-03-02T03:23:09;0.60;;;0.30;;
70899;SDS011;67902;52.154;5.430;2024-03-02T03:25:44;1.17;;;0.35;;
70899;SDS011;67902;52.154;5.430;2024-03-02T03:28:10;0.68;;;0.40;;
70899;SDS011;67902;52.154;5.430;2024-03-02T03:30:37;1.40;;;0.30;;
70899;SDS011;67902;52.154;5.430;2024-03-02T03:33:04;0.77;;;0.30;;
70899;SDS011;67902;52.154;5.430;2024-03-02T03:35:34;0.63;;;0.35;;
70899;SDS011;67902;52.154;5.430;2024-03-02T03:38:02;1.77;;;0.40;;
70899;SDS011;67902;52.154;5.430;2024-03-02T03:40:29;1.67;;;0.22;;
70899;SDS011;67902;52.154;5.430;2024-03-02T03:42:55;2.15;;;0.60;;
70899;SDS011;67902;52.154;5.430;2024-03-02T03:45:23;2.28;;;0.40;;
70899;SDS011;67902;52.154;5.430;2024-03-02T03:47:53;1.55;;;0.52;;
70899;SDS011;67902;52.154;5.430;2024-03-02T03:50:19;0.82;;;0.30;;
70899;SDS011;67902;52.154;5.430;2024-03-02T03:52:46;2.72;;;0.47;;
70899;SDS011;67902;52.154;5.430;2024-03-02T03:55:12;0.73;;;0.35;;
70899;SDS011;67902;52.154;5.430;2024-03-02T03:57:39;0.22;;;0.20;;
70899;SDS011;67902;52.154;5.430;2024-03-02T04:00:06;1.50;;;0.45;;
70899;SDS011;67902;52.154;5.430;2024-03-02T04:02:36;1.83;;;0.52;;
70899;SDS011;67902;52.154;5.430;2024-03-02T04:05:03;2.70;;;0.73;;
70899;SDS011;67902;52.154;5.430;2024-03-02T04:07:35;2.20;;;0.40;;
70899;SDS011;67902;52.154;5.430;2024-03-02T04:10:07;1.65;;;0.50;;
70899;SDS011;67902;52.154;5.430;2024-03-02T04:12:35;1.27;;;0.55;;
70899;SDS011;67902;52.154;5.430;2024-03-02T04:15:05;3.70;;;0.50;;
70899;SDS011;67902;52.154;5.430;2024-03-02T04:17:33;0.98;;;0.20;;
70899;SDS011;67902;52.154;5.430;2024-03-02T04:20:00;4.35;;;0.57;;
70899;SDS011;67902;52.154;5.430;2024-03-02T04:22:27;2.60;;;0.40;;
70899;SDS011;67902;52.154;5.430;2024-03-02T04:24:54;0.85;;;0.28;;
70899;SDS011;67902;52.154;5.430;2024-03-02T04:27:21;1.90;;;0.55;;
70899;SDS011;67902;52.154;5.430;2024-03-02T04:29:47;2.28;;;0.52;;
70899;SDS011;67902;52.154;5.430;2024-03-02T04:32:14;3.17;;;0.82;;
70899;SDS011;67902;52.154;5.430;2024-03-02T04:34:41;0.55;;;0.40;;
70899;SDS011;67902;52.154;5.430;2024-03-02T04:37:07;2.00;;;0.60;;
70899;SDS011;67902;52.154;5.430;2024-03-02T04:39:35;1.95;;;0.50;;
70899;SDS011;67902;52.154;5.430;2024-03-02T04:42:02;1.52;;;0.30;;
70899;SDS011;67902;52.154;5.430;2024-03-02T04:44:29;1.05;;;0.43;;
70899;SDS011;67902;52.154;5.430;2024-03-02T04:46:55;1.52;;;0.60;;
70899;SDS011;67902;52.154;5.430;2024-03-02T04:49:22;1.67;;;0.47;;
70899;SDS011;67902;52.154;5.430;2024-03-02T04:51:49;1.33;;;0.40;;
70899;SDS011;67902;52.154;5.430;2024-03-02T04:54:15;1.45;;;0.40;;
70899;SDS011;67902;52.154;5.430;2024-03-02T04:56:42;1.55;;;0.50;;
70899;SDS011;67902;52.154;5.430;2024-03-02T04:59:19;0.82;;;0.47;;
70899;SDS011;67902;52.154;5.430;2024-03-02T05:01:46;2.38;;;0.25;;
70899;SDS011;67902;52.154;5.430;2024-03-02T05:04:13;2.67;;;0.47;;
70899;SDS011;67902;52.154;5.430;2024-03-02T05:06:40;5.97;;;0.63;;
70899;SDS011;67902;52.154;5.430;2024-03-02T05:09:07;1.25;;;0.38;;
70899;SDS011;67902;52.154;5.430;2024-03-02T05:11:35;0.55;;;0.30;;
70899;SDS011;67902;52.154;5.430;2024-03-02T05:14:05;1.13;;;0.55;;
70899;SDS011;67902;52.154;5.430;2024-03-02T05:16:35;2.53;;;0.70;;
70899;SDS011;67902;52.154;5.430;2024-03-02T05:19:04;2.40;;;0.70;;
70899;SDS011;67902;52.154;5.430;2024-03-02T05:21:33;1.73;;;0.50;;
70899;SDS011;67902;52.154;5.430;2024-03-02T05:24:00;3.33;;;0.50;;
70899;SDS011;67902;52.154;5.430;2024-03-02T05:26:26;1.35;;;0.52;;
70899;SDS011;67902;52.154;5.430;2024-03-02T05:28:53;1.13;;;0.32;;
70899;SDS011;67902;52.154;5.430;2024-03-02T05:31:19;0.75;;;0.38;;
70899;SDS011;67902;52.154;5.430;2024-03-02T05:33:46;0.77;;;0.32;;
70899;SDS011;67902;52.154;5.430;2024-03-02T05:36:12;0.63;;;0.32;;
70899;SDS011;67902;52.154;5.430;2024-03-02T05:38:39;1.67;;;0.68;;
70899;SDS011;67902;52.154;5.430;2024-03-02T05:41:05;2.75;;;0.57;;
70899;SDS011;67902;52.154;5.430;2024-03-02T05:43:32;0.35;;;0.20;;
70899;SDS011;67902;52.154;5.430;2024-03-02T05:45:59;1.38;;;0.45;;
70899;SDS011;67902;52.154;5.430;2024-03-02T05:48:25;1.88;;;0.60;;
70899;SDS011;67902;52.154;5.430;2024-03-02T05:50:52;1.17;;;0.50;;
70899;SDS011;67902;52.154;5.430;2024-03-02T05:53:18;3.85;;;0.55;;
70899;SDS011;67902;52.154;5.430;2024-03-02T05:55:45;0.52;;;0.28;;
70899;SDS011;67902;52.154;5.430;2024-03-02T05:58:11;1.42;;;0.57;;
70899;SDS011;67902;52.154;5.430;2024-03-02T06:00:38;4.13;;;0.80;;
70899;SDS011;67902;52.154;5.430;2024-03-02T06:03:04;3.58;;;0.52;;
70899;SDS011;67902;52.154;5.430;2024-03-02T06:05:32;3.17;;;0.50;;
70899;SDS011;67902;52.154;5.430;2024-03-02T06:07:58;1.95;;;0.60;;
70899;SDS011;67902;52.154;5.430;2024-03-02T06:10:25;2.08;;;0.57;;
70899;SDS011;67902;52.154;5.430;2024-03-02T06:12:51;2.30;;;0.63;;
70899;SDS011;67902;52.154;5.430;2024-03-02T06:15:18;1.80;;;0.50;;
70899;SDS011;67902;52.154;5.430;2024-03-02T06:17:45;4.75;;;0.73;;
70899;SDS011;67902;52.154;5.430;2024-03-02T06:20:11;1.00;;;0.32;;
70899;SDS011;67902;52.154;5.430;2024-03-02T06:22:38;1.60;;;0.25;;
70899;SDS011;67902;52.154;5.430;2024-03-02T06:25:04;4.03;;;0.75;;
70899;SDS011;67902;52.154;5.430;2024-03-02T06:27:31;3.40;;;0.88;;
70899;SDS011;67902;52.154;5.430;2024-03-02T06:29:58;3.53;;;0.70;;
70899;SDS011;67902;52.154;5.430;2024-03-02T06:32:24;2.05;;;0.80;;
70899;SDS011;67902;52.154;5.430;2024-03-02T06:34:51;1.30;;;0.40;;
70899;SDS011;67902;52.154;5.430;2024-03-02T06:37:17;2.38;;;0.73;;
70899;SDS011;67902;52.154;5.430;2024-03-02T06:39:44;4.00;;;0.73;;
70899;SDS011;67902;52.154;5.430;2024-03-02T06:42:11;4.07;;;0.70;;
70899;SDS011;67902;52.154;5.430;2024-03-02T06:44:37;1.23;;;0.50;;
70899;SDS011;67902;52.154;5.430;2024-03-02T06:47:04;1.45;;;0.52;;
70899;SDS011;67902;52.154;5.430;2024-03-02T06:49:30;2.08;;;0.63;;
70899;SDS011;67902;52.154;5.430;2024-03-02T06:51:57;1.42;;;0.47;;
70899;SDS011;67902;52.154;5.430;2024-03-02T06:54:24;0.73;;;0.35;;
70899;SDS011;67902;52.154;5.430;2024-03-02T06:56:50;6.40;;;0.70;;
70899;SDS011;67902;52.154;5.430;2024-03-02T06:59:17;3.38;;;0.50;;
70899;SDS011;67902;52.154;5.430;2024-03-02T07:01:43;2.83;;;0.68;;
70899;SDS011;67902;52.154;5.430;2024-03-02T07:04:10;1.75;;;0.47;;
70899;SDS011;67902;52.154;5.430;2024-03-02T07:06:36;1.88;;;0.50;;
70899;SDS011;67902;52.154;5.430;2024-03-02T07:09:03;3.28;;;0.68;;
70899;SDS011;67902;52.154;5.430;2024-03-02T07:11:29;0.85;;;0.40;;
70899;SDS011;67902;52.154;5.430;2024-03-02T07:13:56;1.60;;;0.60;;
70899;SDS011;67902;52.154;5.430;2024-03-02T07:16:22;1.50;;;0.60;;
70899;SDS011;67902;52.154;5.430;2024-03-02T07:18:55;3.00;;;0.80;;
70899;SDS011;67902;52.154;5.430;2024-03-02T07:21:23;0.95;;;0.40;;
70899;SDS011;67902;52.154;5.430;2024-03-02T07:23:49;3.00;;;0.50;;
70899;SDS011;67902;52.154;5.430;2024-03-02T07:26:17;1.75;;;0.50;;
70899;SDS011;67902;52.154;5.430;2024-03-02T07:28:49;8.50;;;0.90;;
70899;SDS011;67902;52.154;5.430;2024-03-02T07:31:16;2.72;;;0.63;;
70899;SDS011;67902;52.154;5.430;2024-03-02T07:33:46;3.22;;;0.63;;
70899;SDS011;67902;52.154;5.430;2024-03-02T07:36:13;2.22;;;0.82;;
70899;SDS011;67902;52.154;5.430;2024-03-02T07:38:40;2.40;;;0.80;;
70899;SDS011;67902;52.154;5.430;2024-03-02T07:41:07;2.88;;;0.47;;
70899;SDS011;67902;52.154;5.430;2024-03-02T07:43:34;3.65;;;0.40;;
70899;SDS011;67902;52.154;5.430;2024-03-02T07:46:01;3.67;;;0.52;;
70899;SDS011;67902;52.154;5.430;2024-03-02T07:48:29;1.23;;;0.38;;
70899;SDS011;67902;52.154;5.430;2024-03-02T07:50:57;2.95;;;0.60;;
70899;SDS011;67902;52.154;5.430;2024-03-02T07:53:23;1.58;;;0.60;;
70899;SDS011;67902;52.154;5.430;2024-03-02T07:55:50;3.75;;;0.70;;
70899;SDS011;67902;52.154;5.430;2024-03-02T07:58:16;4.15;;;0.73;;
70899;SDS011;67902;52.154;5.430;2024-03-02T08:00:46;3.58;;;0.47;;
70899;SDS011;67902;52.154;5.430;2024-03-02T08:03:13;2.58;;;0.50;;
70899;SDS011;67902;52.154;5.430;2024-03-02T08:05:40;1.50;;;0.47;;
70899;SDS011;67902;52.154;5.430;2024-03-02T08:08:07;1.52;;;0.40;;
70899;SDS011;67902;52.154;5.430;2024-03-02T08:10:33;1.75;;;0.40;;
70899;SDS011;67902;52.154;5.430;2024-03-02T08:13:00;1.63;;;0.57;;
70899;SDS011;67902;52.154;5.430;2024-03-02T08:15:27;2.67;;;0.50;;
70899;SDS011;67902;52.154;5.430;2024-03-02T08:17:53;0.70;;;0.30;;
70899;SDS011;67902;52.154;5.430;2024-03-02T08:20:20;3.53;;;0.60;;
70899;SDS011;67902;52.154;5.430;2024-03-02T08:22:46;2.42;;;0.50;;
70899;SDS011;67902;52.154;5.430;2024-03-02T08:25:13;2.38;;;0.68;;
70899;SDS011;67902;52.154;5.430;2024-03-02T08:27:40;2.20;;;0.52;;
70899;SDS011;67902;52.154;5.430;2024-03-02T08:30:06;1.48;;;0.40;;
70899;SDS011;67902;52.154;5.430;2024-03-02T08:32:34;2.22;;;0.60;;
70899;SDS011;67902;52.154;5.430;2024-03-02T08:35:01;3.90;;;0.70;;
70899;SDS011;67902;52.154;5.430;2024-03-02T08:37:28;2.60;;;0.70;;
70899;SDS011;67902;52.154;5.430;2024-03-02T08:39:54;2.90;;;0.70;;
70899;SDS011;67902;52.154;5.430;2024-03-02T08:42:21;1.92;;;0.45;;
70899;SDS011;67902;52.154;5.430;2024-03-02T08:44:49;0.30;;;0.30;;
70899;SDS011;67902;52.154;5.430;2024-03-02T08:47:16;3.40;;;0.73;;
70899;SDS011;67902;52.154;5.430;2024-03-02T08:49:42;2.58;;;0.70;;
70899;SDS011;67902;52.154;5.430;2024-03-02T08:52:09;2.80;;;0.77;;
70899;SDS011;67902;52.154;5.430;2024-03-02T08:54:35;1.73;;;0.60;;
70899;SDS011;67902;52.154;5.430;2024-03-02T08:57:02;2.83;;;0.55;;
70899;SDS011;67902;52.154;5.430;2024-03-02T08:59:28;1.60;;;0.55;;
70899;SDS011;67902;52.154;5.430;2024-03-02T09:01:55;1.55;;;0.50;;
70899;SDS011;67902;52.154;5.430;2024-03-02T09:04:25;3.10;;;0.77;;
70899;SDS011;67902;52.154;5.430;2024-03-02T09:06:54;3.50;;;0.68;;
70899;SDS011;67902;52.154;5.430;2024-03-02T09:09:21;3.75;;;0.80;;
70899;SDS011;67902;52.154;5.430;2024-03-02T09:11:48;4.78;;;0.60;;
70899;SDS011;67902;52.154;5.430;2024-03-02T09:14:15;6.20;;;0.90;;
70899;SDS011;67902;52.154;5.430;2024-03-02T09:16:42;5.93;;;0.77;;
70899;SDS011;67902;52.154;5.430;2024-03-02T09:19:09;5.60;;;0.68;;
70899;SDS011;67902;52.154;5.430;2024-03-02T09:21:36;4.68;;;0.80;;
70899;SDS011;67902;52.154;5.430;2024-03-02T09:24:04;1.48;;;0.50;;
70899;SDS011;67902;52.154;5.430;2024-03-02T09:26:30;2.33;;;0.57;;
70899;SDS011;67902;52.154;5.430;2024-03-02T09:28:58;4.60;;;0.90;;
70899;SDS011;67902;52.154;5.430;2024-03-02T09:31:24;4.07;;;0.70;;
70899;SDS011;67902;52.154;5.430;2024-03-02T09:33:51;2.97;;;0.65;;
70899;SDS011;67902;52.154;5.430;2024-03-02T09:36:18;1.83;;;0.73;;
70899;SDS011;67902;52.154;5.430;2024-03-02T09:38:45;4.50;;;0.60;;
70899;SDS011;67902;52.154;5.430;2024-03-02T09:41:13;3.72;;;0.73;;
70899;SDS011;67902;52.154;5.430;2024-03-02T09:43:40;3.38;;;0.77;;
70899;SDS011;67902;52.154;5.430;2024-03-02T09:46:10;3.92;;;0.93;;
70899;SDS011;67902;52.154;5.430;2024-03-02T09:48:37;6.25;;;1.20;;
70899;SDS011;67902;52.154;5.430;2024-03-02T09:53:32;2.20;;;0.43;;
70899;SDS011;67902;52.154;5.430;2024-03-02T09:56:00;5.53;;;0.73;;
70899;SDS011;67902;52.154;5.430;2024-03-02T09:58:27;4.25;;;0.77;;
70899;SDS011;67902;52.154;5.430;2024-03-02T10:00:55;5.43;;;0.80;;
70899;SDS011;67902;52.154;5.430;2024-03-02T10:03:22;3.25;;;0.82;;
70899;SDS011;67902;52.154;5.430;2024-03-02T10:05:51;5.85;;;1.05;;
70899;SDS011;67902;52.154;5.430;2024-03-02T10:08:17;3.65;;;0.93;;
70899;SDS011;67902;52.154;5.430;2024-03-02T10:10:44;4.50;;;1.27;;
70899;SDS011;67902;52.154;5.430;2024-03-02T10:13:11;2.60;;;0.77;;
70899;SDS011;67902;52.154;5.430;2024-03-02T10:15:39;6.82;;;0.90;;
70899;SDS011;67902;52.154;5.430;2024-03-02T10:18:08;5.43;;;1.10;;
70899;SDS011;67902;52.154;5.430;2024-03-02T10:20:39;4.78;;;0.70;;
70899;SDS011;67902;52.154;5.430;2024-03-02T10:23:13;3.10;;;0.88;;
70899;SDS011;67902;52.154;5.430;2024-03-02T10:25:44;5.90;;;1.02;;
70899;SDS011;67902;52.154;5.430;2024-03-02T10:28:23;2.83;;;0.90;;
70899;SDS011;67902;52.154;5.430;2024-03-02T10:30:50;4.93;;;1.25;;
70899;SDS011;67902;52.154;5.430;2024-03-02T10:33:19;2.03;;;0.60;;
70899;SDS011;67902;52.154;5.430;2024-03-02T10:35:47;2.50;;;0.60;;
70899;SDS011;67902;52.154;5.430;2024-03-02T10:38:15;4.78;;;0.50;;
70899;SDS011;67902;52.154;5.430;2024-03-02T10:40:46;4.45;;;0.80;;
70899;SDS011;67902;52.154;5.430;2024-03-02T10:43:14;3.47;;;0.80;;
70899;SDS011;67902;52.154;5.430;2024-03-02T10:45:42;4.63;;;0.75;;
70899;SDS011;67902;52.154;5.430;2024-03-02T10:48:08;3.90;;;1.00;;
70899;SDS011;67902;52.154;5.430;2024-03-02T10:50:35;1.70;;;0.60;;
70899;SDS011;67902;52.154;5.430;2024-03-02T10:53:01;3.05;;;0.63;;
70899;SDS011;67902;52.154;5.430;2024-03-02T10:55:30;1.95;;;0.55;;
70899;SDS011;67902;52.154;5.430;2024-03-02T10:57:57;2.83;;;0.60;;
70899;SDS011;67902;52.154;5.430;2024-03-02T11:00:29;2.83;;;0.70;;
70899;SDS011;67902;52.154;5.430;2024-03-02T11:05:36;3.13;;;0.68;;
70899;SDS011;67902;52.154;5.430;2024-03-02T11:08:08;2.08;;;0.60;;
70899;SDS011;67902;52.154;5.430;2024-03-02T11:10:50;3.78;;;0.63;;
70899;SDS011;67902;52.154;5.430;2024-03-02T11:13:22;4.28;;;0.60;;
70899;SDS011;67902;52.154;5.430;2024-03-02T11:15:57;4.25;;;0.50;;
70899;SDS011;67902;52.154;5.430;2024-03-02T11:18:30;3.42;;;0.80;;
70899;SDS011;67902;52.154;5.430;2024-03-02T11:20:58;2.72;;;0.68;;
70899;SDS011;67902;52.154;5.430;2024-03-02T11:23:32;2.72;;;0.63;;
70899;SDS011;67902;52.154;5.430;2024-03-02T11:28:45;4.15;;;0.80;;
70899;SDS011;67902;52.154;5.430;2024-03-02T11:31:12;4.53;;;0.77;;
70899;SDS011;67902;52.154;5.430;2024-03-02T11:33:39;3.08;;;0.55;;
70899;SDS011;67902;52.154;5.430;2024-03-02T11:36:06;2.47;;;0.77;;
70899;SDS011;67902;52.154;5.430;2024-03-02T11:38:35;3.58;;;0.60;;
70899;SDS011;67902;52.154;5.430;2024-03-02T11:41:03;3.85;;;0.60;;
70899;SDS011;67902;52.154;5.430;2024-03-02T11:43:38;2.97;;;1.02;;
70899;SDS011;67902;52.154;5.430;2024-03-02T11:46:05;3.83;;;0.65;;
70899;SDS011;67902;52.154;5.430;2024-03-02T11:48:36;2.95;;;0.82;;
70899;SDS011;67902;52.154;5.430;2024-03-02T11:51:05;4.00;;;0.90;;
70899;SDS011;67902;52.154;5.430;2024-03-02T11:53:32;5.05;;;0.63;;
70899;SDS011;67902;52.154;5.430;2024-03-02T11:56:01;3.05;;;0.52;;
70899;SDS011;67902;52.154;5.430;2024-03-02T11:58:28;4.05;;;1.00;;
70899;SDS011;67902;52.154;5.430;2024-03-02T12:00:56;1.10;;;0.50;;
70899;SDS011;67902;52.154;5.430;2024-03-02T12:03:23;5.55;;;0.70;;
70899;SDS011;67902;52.154;5.430;2024-03-02T12:05:55;6.70;;;0.90;;
70899;SDS011;67902;52.154;5.430;2024-03-02T12:08:22;7.15;;;0.80;;
70899;SDS011;67902;52.154;5.430;2024-03-02T12:10:57;5.10;;;0.80;;
70899;SDS011;67902;52.154;5.430;2024-03-02T12:13:25;3.15;;;0.65;;
70899;SDS011;67902;52.154;5.430;2024-03-02T12:15:54;3.80;;;0.80;;
70899;SDS011;67902;52.154;5.430;2024-03-02T12:18:24;4.18;;;0.93;;
70899;SDS011;67902;52.154;5.430;2024-03-02T12:20:52;3.05;;;0.77;;
70899;SDS011;67902;52.154;5.430;2024-03-02T12:23:22;3.88;;;1.00;;
70899;SDS011;67902;52.154;5.430;2024-03-02T12:25:49;2.75;;;0.63;;
70899;SDS011;67902;52.154;5.430;2024-03-02T12:28:16;4.47;;;0.82;;
70899;SDS011;67902;52.154;5.430;2024-03-02T12:30:43;5.43;;;1.17;;
70899;SDS011;67902;52.154;5.430;2024-03-02T12:33:11;3.33;;;0.85;;
70899;SDS011;67902;52.154;5.430;2024-03-02T12:35:38;4.05;;;0.90;;
70899;SDS011;67902;52.154;5.430;2024-03-02T12:38:05;5.88;;;0.90;;
70899;SDS011;67902;52.154;5.430;2024-03-02T12:40:32;2.60;;;0.88;;
70899;SDS011;67902;52.154;5.430;2024-03-02T12:42:58;3.78;;;0.90;;
70899;SDS011;67902;52.154;5.430;2024-03-02T12:45:25;2.45;;;0.88;;
70899;SDS011;67902;52.154;5.430;2024-03-02T12:47:52;5.10;;;1.00;;
70899;SDS011;67902;52.154;5.430;2024-03-02T12:50:19;4.55;;;0.95;;
70899;SDS011;67902;52.154;5.430;2024-03-02T12:52:53;2.28;;;0.70;;
70899;SDS011;67902;52.154;5.430;2024-03-02T12:55:21;5.47;;;1.30;;
70899;SDS011;67902;52.154;5.430;2024-03-02T12:57:51;3.70;;;0.73;;
70899;SDS011;67902;52.154;5.430;2024-03-02T13:00:20;2.38;;;0.68;;
70899;SDS011;67902;52.154;5.430;2024-03-02T13:02:48;6.47;;;1.10;;
70899;SDS011;67902;52.154;5.430;2024-03-02T13:05:18;3.85;;;0.98;;
70899;SDS011;67902;52.154;5.430;2024-03-02T13:07:46;4.47;;;1.00;;
70899;SDS011;67902;52.154;5.430;2024-03-02T13:10:13;4.18;;;1.00;;
70899;SDS011;67902;52.154;5.430;2024-03-02T13:12:40;4.03;;;0.98;;
70899;SDS011;67902;52.154;5.430;2024-03-02T13:15:08;5.75;;;1.13;;
70899;SDS011;67902;52.154;5.430;2024-03-02T13:17:34;4.78;;;1.00;;
70899;SDS011;67902;52.154;5.430;2024-03-02T13:20:04;2.70;;;0.80;;
70899;SDS011;67902;52.154;5.430;2024-03-02T13:22:34;4.63;;;1.10;;
70899;SDS011;67902;52.154;5.430;2024-03-02T13:25:01;3.55;;;1.00;;
70899;SDS011;67902;52.154;5.430;2024-03-02T13:27:32;4.15;;;1.23;;
70899;SDS011;67902;52.154;5.430;2024-03-02T13:29:59;5.05;;;1.20;;
70899;SDS011;67902;52.154;5.430;2024-03-02T13:32:26;3.00;;;0.93;;
70899;SDS011;67902;52.154;5.430;2024-03-02T13:34:52;4.43;;;1.05;;
70899;SDS011;67902;52.154;5.430;2024-03-02T13:37:20;4.30;;;0.90;;
70899;SDS011;67902;52.154;5.430;2024-03-02T13:39:47;4.50;;;1.10;;
70899;SDS011;67902;52.154;5.430;2024-03-02T13:42:13;4.20;;;1.10;;
70899;SDS011;67902;52.154;5.430;2024-03-02T13:44:44;3.42;;;1.10;;
70899;SDS011;67902;52.154;5.430;2024-03-02T13:47:16;5.10;;;1.10;;
70899;SDS011;67902;52.154;5.430;2024-03-02T13:49:43;3.38;;;0.90;;
70899;SDS011;67902;52.154;5.430;2024-03-02T13:52:12;6.85;;;1.10;;
70899;SDS011;67902;52.154;5.430;2024-03-02T13:54:41;3.90;;;1.23;;
70899;SDS011;67902;52.154;5.430;2024-03-02T13:57:09;5.57;;;1.20;;
70899;SDS011;67902;52.154;5.430;2024-03-02T13:59:37;3.78;;;1.25;;
70899;SDS011;67902;52.154;5.430;2024-03-02T14:02:04;4.07;;;1.00;;
70899;SDS011;67902;52.154;5.430;2024-03-02T14:04:32;2.83;;;0.73;;
70899;SDS011;67902;52.154;5.430;2024-03-02T14:07:00;4.32;;;1.25;;
70899;SDS011;67902;52.154;5.430;2024-03-02T14:09:28;3.13;;;0.90;;
70899;SDS011;67902;52.154;5.430;2024-03-02T14:11:56;3.17;;;0.98;;
70899;SDS011;67902;52.154;5.430;2024-03-02T14:14:23;5.13;;;1.58;;
70899;SDS011;67902;52.154;5.430;2024-03-02T14:16:50;5.03;;;1.10;;
70899;SDS011;67902;52.154;5.430;2024-03-02T14:19:17;4.45;;;1.25;;
70899;SDS011;67902;52.154;5.430;2024-03-02T14:21:43;3.38;;;0.90;;
70899;SDS011;67902;52.154;5.430;2024-03-02T14:24:10;7.65;;;1.42;;
70899;SDS011;67902;52.154;5.430;2024-03-02T14:26:37;6.13;;;1.60;;
70899;SDS011;67902;52.154;5.430;2024-03-02T14:29:03;5.40;;;1.30;;
70899;SDS011;67902;52.154;5.430;2024-03-02T14:31:31;5.60;;;1.17;;
70899;SDS011;67902;52.154;5.430;2024-03-02T14:33:58;3.55;;;1.17;;
70899;SDS011;67902;52.154;5.430;2024-03-02T14:36:26;5.47;;;1.15;;
70899;SDS011;67902;52.154;5.430;2024-03-02T14:38:54;4.22;;;1.35;;
70899;SDS011;67902;52.154;5.430;2024-03-02T14:41:22;3.67;;;1.02;;
70899;SDS011;67902;52.154;5.430;2024-03-02T14:43:50;3.75;;;1.02;;
70899;SDS011;67902;52.154;5.430;2024-03-02T14:46:17;4.95;;;1.00;;
70899;SDS011;67902;52.154;5.430;2024-03-02T14:48:44;5.97;;;1.08;;
70899;SDS011;67902;52.154;5.430;2024-03-02T14:51:11;3.53;;;1.08;;
70899;SDS011;67902;52.154;5.430;2024-03-02T14:53:41;5.55;;;1.40;;
70899;SDS011;67902;52.154;5.430;2024-03-02T14:56:08;4.10;;;1.02;;
70899;SDS011;67902;52.154;5.430;2024-03-02T14:58:34;4.30;;;1.00;;
70899;SDS011;67902;52.154;5.430;2024-03-02T15:01:04;5.97;;;1.35;;
70899;SDS011;67902;52.154;5.430;2024-03-02T15:03:35;3.75;;;1.00;;
70899;SDS011;67902;52.154;5.430;2024-03-02T15:08:30;3.65;;;1.00;;
70899;SDS011;67902;52.154;5.430;2024-03-02T15:10:56;4.43;;;0.95;;